GAP2279 RPVM-RPVB
Flight info
| Callsign | GAP2279 |
|---|---|
| Flight time | 0h 24m |
| Altitude | 14000 |
| Route | PARAO4P PARAO W6A KADSO KADSO3P |
| Aircraft | A321/M-SDE3FGHIRWY/LB1 |
Departure
| Time | 2026-04-21 03:03 |
|---|---|
| Airport | Mactan Cebu International Airport (RPVM) |
Arrival
| Time | 2026-04-21 03:28 |
|---|---|
| Airport | Bacolod-Silay International Airport (RPVB) |
| Time | Latitude | Longitude | Altitude | Speed | Heading |
|---|---|---|---|---|---|
| 2026-04-21 02:29 | 10.31411 | 123.97835 | 36 ft | 0 kts | 314° |
| 2026-04-21 02:50 | 10.31404 | 123.97842 | 36 ft | 2 kts | 314° |
| 2026-04-21 02:50 | 10.31393 | 123.97854 | 36 ft | 2 kts | 314° |
| 2026-04-21 02:50 | 10.31386 | 123.97861 | 36 ft | 1 kts | 314° |
| 2026-04-21 02:50 | 10.31377 | 123.97873 | 36 ft | 2 kts | 291° |
| 2026-04-21 02:51 | 10.31374 | 123.97887 | 36 ft | 2 kts | 272° |
| 2026-04-21 02:51 | 10.31375 | 123.97903 | 36 ft | 2 kts | 252° |
| 2026-04-21 02:51 | 10.31382 | 123.97916 | 36 ft | 2 kts | 232° |
| 2026-04-21 02:51 | 10.31387 | 123.97922 | 36 ft | 1 kts | 221° |
| 2026-04-21 02:52 | 10.31389 | 123.97924 | 36 ft | 0 kts | 224° |
| 2026-04-21 02:54 | 10.31380 | 123.97916 | 36 ft | 3 kts | 221° |
| 2026-04-21 02:54 | 10.31345 | 123.97899 | 36 ft | 7 kts | 185° |
| 2026-04-21 02:54 | 10.31302 | 123.97920 | 36 ft | 6 kts | 137° |
| 2026-04-21 02:54 | 10.31299 | 123.97923 | 36 ft | 6 kts | 136° |
| 2026-04-21 02:55 | 10.31296 | 123.97927 | 36 ft | 6 kts | 134° |
| 2026-04-21 02:55 | 10.31265 | 123.97960 | 36 ft | 6 kts | 133° |
| 2026-04-21 02:55 | 10.31234 | 123.97987 | 36 ft | 5 kts | 153° |
| 2026-04-21 02:56 | 10.31196 | 123.97975 | 36 ft | 8 kts | 218° |
| 2026-04-21 02:56 | 10.31064 | 123.97845 | 36 ft | 15 kts | 224° |
| 2026-04-21 02:56 | 10.30988 | 123.97768 | 36 ft | 17 kts | 225° |
| 2026-04-21 02:57 | 10.30910 | 123.97690 | 36 ft | 8 kts | 223° |
| 2026-04-21 02:57 | 10.30865 | 123.97648 | 36 ft | 9 kts | 225° |
| 2026-04-21 02:57 | 10.30818 | 123.97600 | 36 ft | 10 kts | 225° |
| 2026-04-21 02:57 | 10.30765 | 123.97546 | 36 ft | 11 kts | 225° |
| 2026-04-21 02:58 | 10.30709 | 123.97488 | 36 ft | 12 kts | 225° |
| 2026-04-21 02:58 | 10.30647 | 123.97425 | 36 ft | 12 kts | 225° |
| 2026-04-21 02:58 | 10.30581 | 123.97360 | 36 ft | 13 kts | 225° |
| 2026-04-21 02:58 | 10.30518 | 123.97295 | 36 ft | 9 kts | 226° |
| 2026-04-21 02:59 | 10.30468 | 123.97244 | 36 ft | 10 kts | 225° |
| 2026-04-21 02:59 | 10.30411 | 123.97187 | 36 ft | 11 kts | 224° |
| 2026-04-21 02:59 | 10.30350 | 123.97127 | 36 ft | 12 kts | 224° |
| 2026-04-21 02:59 | 10.30301 | 123.97079 | 36 ft | 9 kts | 223° |
| 2026-04-21 03:00 | 10.30248 | 123.97028 | 36 ft | 12 kts | 225° |
| 2026-04-21 03:00 | 10.30173 | 123.96952 | 36 ft | 17 kts | 224° |
| 2026-04-21 03:00 | 10.30088 | 123.96865 | 36 ft | 17 kts | 226° |
| 2026-04-21 03:00 | 10.30005 | 123.96782 | 36 ft | 13 kts | 224° |
| 2026-04-21 03:01 | 10.29955 | 123.96732 | 36 ft | 8 kts | 224° |
| 2026-04-21 03:01 | 10.29908 | 123.96703 | 36 ft | 6 kts | 189° |
| 2026-04-21 03:01 | 10.29868 | 123.96721 | 36 ft | 7 kts | 134° |
| 2026-04-21 03:01 | 10.29833 | 123.96760 | 36 ft | 7 kts | 132° |
| 2026-04-21 03:02 | 10.29795 | 123.96801 | 36 ft | 8 kts | 134° |
| 2026-04-21 03:02 | 10.29752 | 123.96845 | 36 ft | 8 kts | 136° |
| 2026-04-21 03:02 | 10.29722 | 123.96899 | 36 ft | 9 kts | 81° |
| 2026-04-21 03:02 | 10.29785 | 123.96968 | 36 ft | 30 kts | 45° |
| 2026-04-21 03:03 | 10.30108 | 123.97292 | 36 ft | 99 kts | 45° |
| 2026-04-21 03:03 | 10.30750 | 123.97938 | 37 ft | 157 kts | 44° |
| 2026-04-21 03:03 | 10.31570 | 123.98762 | 435 ft | 170 kts | 44° |
| 2026-04-21 03:03 | 10.32404 | 123.99607 | 1118 ft | 169 kts | 45° |
| 2026-04-21 03:04 | 10.33224 | 124.00439 | 1783 ft | 165 kts | 46° |
| 2026-04-21 03:04 | 10.34036 | 124.01263 | 2065 ft | 171 kts | 46° |
| 2026-04-21 03:04 | 10.34907 | 124.02148 | 2285 ft | 182 kts | 44° |
| 2026-04-21 03:04 | 10.36029 | 124.02800 | 2482 ft | 198 kts | 10° |
| 2026-04-21 03:05 | 10.37417 | 124.02496 | 2703 ft | 216 kts | 332° |
| 2026-04-21 03:05 | 10.38668 | 124.01546 | 2955 ft | 232 kts | 324° |
| 2026-04-21 03:05 | 10.40017 | 124.00505 | 3181 ft | 251 kts | 325° |
| 2026-04-21 03:05 | 10.41465 | 123.99417 | 3495 ft | 267 kts | 326° |
| 2026-04-21 03:06 | 10.43003 | 123.98283 | 4031 ft | 275 kts | 326° |
| 2026-04-21 03:06 | 10.44552 | 123.97148 | 4709 ft | 278 kts | 326° |
| 2026-04-21 03:06 | 10.46127 | 123.95998 | 5387 ft | 281 kts | 326° |
| 2026-04-21 03:06 | 10.47723 | 123.94835 | 6071 ft | 285 kts | 326° |
| 2026-04-21 03:07 | 10.49348 | 123.93653 | 6780 ft | 288 kts | 326° |
| 2026-04-21 03:07 | 10.50981 | 123.92466 | 7476 ft | 291 kts | 326° |
| 2026-04-21 03:07 | 10.52623 | 123.91274 | 8152 ft | 294 kts | 326° |
| 2026-04-21 03:07 | 10.54316 | 123.90043 | 8822 ft | 297 kts | 325° |
| 2026-04-21 03:08 | 10.55577 | 123.89127 | 9305 ft | 299 kts | 325° |
| 2026-04-21 03:08 | 10.57268 | 123.87897 | 9918 ft | 302 kts | 324° |
| 2026-04-21 03:08 | 10.58902 | 123.86520 | 10430 ft | 309 kts | 316° |
| 2026-04-21 03:08 | 10.60362 | 123.84869 | 10780 ft | 321 kts | 307° |
| 2026-04-21 03:09 | 10.61716 | 123.83031 | 11339 ft | 325 kts | 305° |
| 2026-04-21 03:09 | 10.63031 | 123.81184 | 11917 ft | 327 kts | 304° |
| 2026-04-21 03:09 | 10.64378 | 123.79291 | 12474 ft | 329 kts | 304° |
| 2026-04-21 03:09 | 10.65712 | 123.77423 | 13004 ft | 332 kts | 304° |
| 2026-04-21 03:10 | 10.67071 | 123.75522 | 13524 ft | 334 kts | 304° |
| 2026-04-21 03:10 | 10.68440 | 123.73611 | 13853 ft | 336 kts | 304° |
| 2026-04-21 03:10 | 10.69824 | 123.71681 | 13933 ft | 339 kts | 304° |
| 2026-04-21 03:10 | 10.71247 | 123.69699 | 13939 ft | 359 kts | 304° |
| 2026-04-21 03:11 | 10.72760 | 123.67594 | 13939 ft | 378 kts | 304° |
| 2026-04-21 03:11 | 10.74356 | 123.65372 | 13939 ft | 396 kts | 304° |
| 2026-04-21 03:11 | 10.76008 | 123.63076 | 13938 ft | 412 kts | 305° |
| 2026-04-21 03:11 | 10.77739 | 123.60668 | 13939 ft | 428 kts | 305° |
| 2026-04-21 03:12 | 10.79520 | 123.58191 | 13941 ft | 435 kts | 305° |
| 2026-04-21 03:12 | 10.81312 | 123.55698 | 13931 ft | 439 kts | 305° |
| 2026-04-21 03:12 | 10.83126 | 123.53175 | 13932 ft | 440 kts | 305° |
| 2026-04-21 03:12 | 10.84931 | 123.50663 | 13938 ft | 441 kts | 305° |
| 2026-04-21 03:13 | 10.86735 | 123.48151 | 13931 ft | 440 kts | 305° |
| 2026-04-21 03:13 | 10.88555 | 123.45618 | 13937 ft | 441 kts | 305° |
| 2026-04-21 03:13 | 10.90380 | 123.43115 | 13940 ft | 441 kts | 307° |
| 2026-04-21 03:13 | 10.92316 | 123.40733 | 13941 ft | 441 kts | 310° |
| 2026-04-21 03:14 | 10.94432 | 123.38442 | 13942 ft | 441 kts | 314° |
| 2026-04-21 03:14 | 10.96654 | 123.36264 | 13940 ft | 441 kts | 315° |
| 2026-04-21 03:14 | 10.98840 | 123.34119 | 13934 ft | 440 kts | 312° |
| 2026-04-21 03:14 | 11.00504 | 123.31519 | 13917 ft | 437 kts | 291° |
| 2026-04-21 03:15 | 11.01101 | 123.28497 | 13930 ft | 434 kts | 269° |
| 2026-04-21 03:15 | 11.00649 | 123.25525 | 13933 ft | 421 kts | 254° |
| 2026-04-21 03:15 | 10.99929 | 123.22704 | 13925 ft | 402 kts | 254° |
| 2026-04-21 03:15 | 10.99253 | 123.20008 | 13925 ft | 383 kts | 255° |
| 2026-04-21 03:16 | 10.98634 | 123.17417 | 13778 ft | 371 kts | 255° |
| 2026-04-21 03:16 | 10.98054 | 123.14904 | 13482 ft | 364 kts | 255° |
| 2026-04-21 03:16 | 10.97495 | 123.12418 | 13165 ft | 358 kts | 256° |
| 2026-04-21 03:16 | 10.96947 | 123.09958 | 12816 ft | 352 kts | 256° |
| 2026-04-21 03:17 | 10.96416 | 123.07548 | 12474 ft | 344 kts | 256° |
| 2026-04-21 03:17 | 10.95901 | 123.05202 | 11924 ft | 335 kts | 256° |
| 2026-04-21 03:17 | 10.95392 | 123.02892 | 11404 ft | 324 kts | 256° |
| 2026-04-21 03:17 | 10.94906 | 123.00689 | 11015 ft | 316 kts | 256° |
| 2026-04-21 03:18 | 10.94420 | 122.98518 | 10538 ft | 311 kts | 254° |
| 2026-04-21 03:18 | 10.93482 | 122.96577 | 10060 ft | 305 kts | 226° |
| 2026-04-21 03:18 | 10.91788 | 122.95354 | 9702 ft | 299 kts | 205° |
| 2026-04-21 03:18 | 10.89900 | 122.94395 | 9333 ft | 300 kts | 205° |
| 2026-04-21 03:19 | 10.88036 | 122.93426 | 8947 ft | 301 kts | 205° |
| 2026-04-21 03:19 | 10.86178 | 122.92440 | 8552 ft | 301 kts | 206° |
| 2026-04-21 03:19 | 10.84341 | 122.91450 | 8198 ft | 300 kts | 206° |
| 2026-04-21 03:19 | 10.82490 | 122.90447 | 7848 ft | 300 kts | 206° |
| 2026-04-21 03:20 | 10.80656 | 122.89449 | 7479 ft | 299 kts | 206° |
| 2026-04-21 03:20 | 10.78806 | 122.88442 | 7107 ft | 299 kts | 206° |
| 2026-04-21 03:20 | 10.76986 | 122.87449 | 6753 ft | 299 kts | 206° |
| 2026-04-21 03:20 | 10.75149 | 122.86446 | 6386 ft | 299 kts | 206° |
| 2026-04-21 03:21 | 10.73329 | 122.85455 | 6104 ft | 294 kts | 206° |
| 2026-04-21 03:21 | 10.71513 | 122.84466 | 5747 ft | 294 kts | 206° |
| 2026-04-21 03:21 | 10.69698 | 122.83478 | 5410 ft | 293 kts | 206° |
| 2026-04-21 03:21 | 10.67846 | 122.82665 | 5009 ft | 288 kts | 188° |
| 2026-04-21 03:22 | 10.65924 | 122.82820 | 4573 ft | 270 kts | 153° |
| 2026-04-21 03:22 | 10.64496 | 122.83927 | 4201 ft | 253 kts | 124° |
| 2026-04-21 03:22 | 10.63631 | 122.85437 | 3880 ft | 248 kts | 115° |
| 2026-04-21 03:22 | 10.62834 | 122.86966 | 3685 ft | 241 kts | 116° |
| 2026-04-21 03:23 | 10.62035 | 122.88443 | 3651 ft | 229 kts | 116° |
| 2026-04-21 03:23 | 10.61276 | 122.89816 | 3607 ft | 218 kts | 115° |
| 2026-04-21 03:23 | 10.60895 | 122.91244 | 3451 ft | 208 kts | 81° |
| 2026-04-21 03:23 | 10.61522 | 122.92526 | 3302 ft | 210 kts | 44° |
| 2026-04-21 03:24 | 10.62792 | 122.93310 | 3175 ft | 213 kts | 30° |
| 2026-04-21 03:24 | 10.64092 | 122.94011 | 3012 ft | 212 kts | 32° |
| 2026-04-21 03:24 | 10.65348 | 122.94729 | 2900 ft | 202 kts | 33° |
| 2026-04-21 03:24 | 10.66573 | 122.95442 | 2526 ft | 204 kts | 32° |
| 2026-04-21 03:25 | 10.67812 | 122.96167 | 2184 ft | 199 kts | 32° |
| 2026-04-21 03:25 | 10.68972 | 122.96843 | 1885 ft | 188 kts | 32° |
| 2026-04-21 03:25 | 10.70066 | 122.97475 | 1667 ft | 173 kts | 33° |
| 2026-04-21 03:25 | 10.71077 | 122.98064 | 1415 ft | 160 kts | 33° |
| 2026-04-21 03:26 | 10.72012 | 122.98608 | 1179 ft | 146 kts | 33° |
| 2026-04-21 03:26 | 10.72854 | 122.99099 | 988 ft | 136 kts | 33° |
| 2026-04-21 03:26 | 10.73667 | 122.99564 | 827 ft | 134 kts | 32° |
| 2026-04-21 03:26 | 10.74475 | 123.00040 | 657 ft | 133 kts | 33° |
| 2026-04-21 03:27 | 10.75282 | 123.00518 | 490 ft | 133 kts | 32° |
| 2026-04-21 03:27 | 10.76081 | 123.00984 | 306 ft | 132 kts | 32° |
| 2026-04-21 03:27 | 10.76879 | 123.01452 | 131 ft | 131 kts | 33° |
| 2026-04-21 03:27 | 10.77601 | 123.01880 | 97 ft | 90 kts | 29° |
| 2026-04-21 03:28 | 10.77910 | 123.02055 | 98 ft | 29 kts | 30° |
| 2026-04-21 03:28 | 10.78080 | 123.02151 | 98 ft | 26 kts | 29° |
| 2026-04-21 03:28 | 10.78166 | 123.02200 | 98 ft | 9 kts | 28° |
| 2026-04-21 03:28 | 10.78224 | 123.02230 | 98 ft | 9 kts | 28° |
| 2026-04-21 03:29 | 10.78287 | 123.02266 | 98 ft | 10 kts | 30° |
| 2026-04-21 03:29 | 10.78350 | 123.02303 | 98 ft | 6 kts | 32° |
| 2026-04-21 03:29 | 10.78400 | 123.02315 | 97 ft | 8 kts | 7° |
| 2026-04-21 03:29 | 10.78432 | 123.02338 | 97 ft | 4 kts | 138° |
| 2026-04-21 03:30 | 10.78394 | 123.02340 | 98 ft | 6 kts | 203° |
| 2026-04-21 03:30 | 10.78332 | 123.02303 | 98 ft | 15 kts | 209° |
| 2026-04-21 03:30 | 10.78207 | 123.02231 | 98 ft | 23 kts | 210° |
| 2026-04-21 03:30 | 10.78064 | 123.02147 | 98 ft | 23 kts | 210° |
| 2026-04-21 03:31 | 10.77924 | 123.02065 | 98 ft | 22 kts | 210° |
| 2026-04-21 03:31 | 10.77802 | 123.01994 | 98 ft | 11 kts | 214° |
| 2026-04-21 03:31 | 10.77735 | 123.01952 | 97 ft | 11 kts | 210° |
| 2026-04-21 03:31 | 10.77683 | 123.01907 | 97 ft | 9 kts | 243° |
| 2026-04-21 03:32 | 10.77696 | 123.01837 | 95 ft | 11 kts | 301° |
| 2026-04-21 03:32 | 10.77736 | 123.01769 | 94 ft | 10 kts | 296° |
| 2026-04-21 03:32 | 10.77734 | 123.01699 | 94 ft | 10 kts | 224° |
| 2026-04-21 03:32 | 10.77672 | 123.01659 | 94 ft | 10 kts | 211° |
| 2026-04-21 03:33 | 10.77650 | 123.01618 | 93 ft | 7 kts | 286° |
| 2026-04-21 03:33 | 10.77670 | 123.01582 | 93 ft | 2 kts | 300° |
| 2026-04-21 03:33 | 10.77674 | 123.01574 | 93 ft | 0 kts | 300° |